createdAt,value
2018-02-12T00:01:15.132Z,3.22
2018-02-12T00:03:42.600Z,4.07
2018-02-12T00:06:10.846Z,1.30
2018-02-12T00:08:38.324Z,1.65
2018-02-12T00:11:05.783Z,1.73
2018-02-12T00:13:33.250Z,1.30
2018-02-12T00:16:01.499Z,1.00
2018-02-12T00:18:29.195Z,1.37
2018-02-12T00:20:57.432Z,0.80
2018-02-12T00:23:24.903Z,1.73
2018-02-12T00:25:52.425Z,1.23
2018-02-12T00:28:19.892Z,5.80
2018-02-12T00:30:47.411Z,0.93
2018-02-12T00:33:14.880Z,1.77
2018-02-12T00:35:42.342Z,2.00
2018-02-12T00:38:09.802Z,3.87
2018-02-12T00:40:37.287Z,4.83
2018-02-12T00:43:04.763Z,3.63
2018-02-12T00:45:32.220Z,1.37
2018-02-12T00:47:59.704Z,3.67
2018-02-12T00:50:27.928Z,5.30
2018-02-12T00:52:55.419Z,3.53
2018-02-12T00:55:22.883Z,3.73
2018-02-12T00:57:50.455Z,2.80
2018-02-12T01:00:18.718Z,1.97
2018-02-12T01:02:46.201Z,3.07
2018-02-12T01:05:13.687Z,1.70
2018-02-12T01:07:41.168Z,2.40
2018-02-12T01:10:08.656Z,2.07
2018-02-12T01:12:36.146Z,3.63
2018-02-12T01:15:03.614Z,1.90
2018-02-12T01:17:31.115Z,2.40
2018-02-12T01:19:58.588Z,2.50
2018-02-12T01:22:26.816Z,2.60
2018-02-12T01:24:54.313Z,2.67
2018-02-12T01:27:21.842Z,1.20
2018-02-12T01:29:49.307Z,1.47
2018-02-12T01:32:16.778Z,1.47
2018-02-12T01:34:45.033Z,1.27
2018-02-12T01:37:12.519Z,1.37
2018-02-12T01:39:40.764Z,1.77
2018-02-12T01:42:08.227Z,1.90
2018-02-12T01:44:35.710Z,3.57
2018-02-12T01:47:03.167Z,1.83
2018-02-12T01:49:30.627Z,2.47
2018-02-12T01:51:58.848Z,2.17
2018-02-12T01:54:26.332Z,3.43
2018-02-12T01:56:53.814Z,1.93
2018-02-12T01:59:21.311Z,1.60
2018-02-12T02:01:48.782Z,1.80
2018-02-12T02:04:16.265Z,2.50
2018-02-12T02:06:43.737Z,1.97
2018-02-12T02:09:11.187Z,1.63
2018-02-12T02:11:38.651Z,3.67
2018-02-12T02:14:07.635Z,2.07
2018-02-12T02:16:35.090Z,2.25
2018-02-12T02:19:02.572Z,2.13
2018-02-12T02:21:30.791Z,2.47
2018-02-12T02:23:58.276Z,4.43
2018-02-12T02:26:25.749Z,1.30
2018-02-12T02:28:53.227Z,2.63
2018-02-12T02:31:21.461Z,1.30
2018-02-12T02:33:48.935Z,2.15
2018-02-12T02:36:16.408Z,3.20
2018-02-12T02:38:44.675Z,1.80
2018-02-12T02:41:12.131Z,2.30
2018-02-12T02:43:39.612Z,1.27
2018-02-12T02:46:07.855Z,1.83
2018-02-12T02:48:35.335Z,2.13
2018-02-12T02:51:02.815Z,1.90
2018-02-12T02:53:30.295Z,3.60
2018-02-12T02:55:57.887Z,2.20
2018-02-12T02:58:25.362Z,2.70
2018-02-12T03:00:53.604Z,2.80
2018-02-12T03:03:21.071Z,3.20
2018-02-12T03:05:49.020Z,1.77
2018-02-12T03:08:16.488Z,3.40
2018-02-12T03:10:43.988Z,1.60
2018-02-12T03:13:12.251Z,6.30
2018-02-12T03:15:39.727Z,1.50
2018-02-12T03:18:07.972Z,1.80
2018-02-12T03:20:35.458Z,5.47
2018-02-12T03:23:03.682Z,3.03
2018-02-12T03:25:31.167Z,4.50
2018-02-12T03:27:59.161Z,2.08
2018-02-12T03:30:27.400Z,2.77
2018-02-12T03:32:54.868Z,2.20
2018-02-12T03:35:22.428Z,2.93
2018-02-12T03:37:49.883Z,4.03
2018-02-12T03:40:17.364Z,2.67
2018-02-12T03:42:45.629Z,3.07
2018-02-12T03:45:13.091Z,1.93
2018-02-12T03:47:40.549Z,3.93
2018-02-12T03:50:08.129Z,3.47
2018-02-12T03:52:36.361Z,6.80
2018-02-12T03:55:03.838Z,1.90
2018-02-12T03:57:31.298Z,2.27
2018-02-12T03:59:58.774Z,3.70
2018-02-12T04:02:26.999Z,2.17
2018-02-12T04:04:54.480Z,2.73
2018-02-12T04:07:21.947Z,4.03
2018-02-12T04:09:49.411Z,2.60
2018-02-12T04:12:17.647Z,3.73
2018-02-12T04:14:45.127Z,2.70
2018-02-12T04:17:12.617Z,8.40
2018-02-12T04:19:40.080Z,2.45
2018-02-12T04:22:07.567Z,4.10
2018-02-12T04:24:35.043Z,3.20
2018-02-12T04:27:02.516Z,2.30
2018-02-12T04:29:30.001Z,10.93
2018-02-12T04:31:57.486Z,3.00
2018-02-12T04:34:24.961Z,4.80
2018-02-12T04:36:52.448Z,1.53
2018-02-12T04:39:19.913Z,3.53
2018-02-12T04:41:47.391Z,4.13
2018-02-12T04:44:15.619Z,3.50
2018-02-12T04:46:43.110Z,2.37
2018-02-12T04:49:11.357Z,4.80
2018-02-12T04:51:38.863Z,4.10
2018-02-12T04:54:06.321Z,2.30
2018-02-12T04:56:33.812Z,4.80
2018-02-12T04:59:01.288Z,1.73
2018-02-12T05:01:28.776Z,4.37
2018-02-12T05:03:57.019Z,2.70
2018-02-12T05:06:24.508Z,3.07
2018-02-12T05:08:52.728Z,3.17
2018-02-12T05:11:20.203Z,2.20
2018-02-12T05:13:47.670Z,2.57
2018-02-12T05:16:15.147Z,3.00
2018-02-12T05:18:42.642Z,2.83
2018-02-12T05:21:10.114Z,2.33
2018-02-12T05:23:37.612Z,3.03
2018-02-12T05:26:05.081Z,4.10
2018-02-12T05:28:33.338Z,19.77
2018-02-12T05:31:00.801Z,6.63
2018-02-12T05:33:28.288Z,2.43
2018-02-12T05:35:56.532Z,2.70
2018-02-12T05:38:24.014Z,6.23
2018-02-12T05:40:52.243Z,4.93
2018-02-12T05:43:19.721Z,4.35
2018-02-12T05:45:47.960Z,2.47
2018-02-12T05:48:15.464Z,3.67
2018-02-12T05:50:42.931Z,3.67
2018-02-12T05:53:10.409Z,4.53
2018-02-12T05:55:38.633Z,4.23
2018-02-12T05:58:12.910Z,1.80
2018-02-12T06:00:40.428Z,2.37
2018-02-12T06:03:07.899Z,2.70
2018-02-12T06:05:36.131Z,2.57
2018-02-12T06:08:03.607Z,6.03
2018-02-12T06:10:31.086Z,3.93
2018-02-12T06:12:58.576Z,4.30
2018-02-12T06:15:26.806Z,6.13
2018-02-12T06:17:54.280Z,5.60
2018-02-12T06:20:22.504Z,3.83
2018-02-12T06:22:49.980Z,3.70
2018-02-12T06:25:17.455Z,2.43
2018-02-12T06:27:44.947Z,2.03
2018-02-12T06:30:13.191Z,4.33
2018-02-12T06:32:40.666Z,5.67
2018-02-12T06:35:08.941Z,6.57
2018-02-12T06:37:37.191Z,6.85
2018-02-12T06:40:04.674Z,5.13
2018-02-12T06:42:32.903Z,6.23
2018-02-12T06:45:00.386Z,5.83
2018-02-12T06:47:27.855Z,15.47
2018-02-12T06:49:56.091Z,7.10
2018-02-12T06:52:23.572Z,3.40
2018-02-12T06:54:51.054Z,2.67
2018-02-12T06:57:18.518Z,7.50
2018-02-12T06:59:46.759Z,8.57
2018-02-12T07:02:14.232Z,7.90
2018-02-12T07:04:41.721Z,19.20
2018-02-12T07:07:10.013Z,10.10
2018-02-12T07:09:38.219Z,5.27
2018-02-12T07:12:05.678Z,6.67
2018-02-12T07:14:33.167Z,7.50
2018-02-12T07:17:01.405Z,4.30
2018-02-12T07:19:28.876Z,5.83
2018-02-12T07:21:56.348Z,8.80
2018-02-12T07:24:23.839Z,7.87
2018-02-12T07:26:51.330Z,4.50
2018-02-12T07:29:18.808Z,6.30
2018-02-12T07:31:46.275Z,5.30
2018-02-12T07:34:13.729Z,2.80
2018-02-12T07:36:41.190Z,5.47
2018-02-12T07:39:08.670Z,6.23
2018-02-12T07:41:36.938Z,6.27
2018-02-12T07:44:04.400Z,7.07
2018-02-12T07:46:33.110Z,5.70
2018-02-12T07:49:00.571Z,4.20
2018-02-12T07:51:28.072Z,3.83
2018-02-12T07:53:55.551Z,4.20
2018-02-12T07:56:23.037Z,4.00
2018-02-12T07:58:50.500Z,3.80
2018-02-12T08:01:17.980Z,3.13
2018-02-12T08:03:45.447Z,4.27
2018-02-12T08:06:13.161Z,4.80
2018-02-12T08:08:41.399Z,8.20
2018-02-12T08:11:08.971Z,2.60
2018-02-12T08:13:36.437Z,3.27
2018-02-12T08:16:04.676Z,2.70
2018-02-12T08:18:32.171Z,6.65
2018-02-12T08:20:59.685Z,1.87
2018-02-12T08:23:27.149Z,3.40
2018-02-12T08:25:54.649Z,3.13
2018-02-12T08:28:23.819Z,2.37
2018-02-12T08:30:51.318Z,2.70
2018-02-12T08:33:19.554Z,2.20
2018-02-12T08:35:47.048Z,3.00
2018-02-12T08:38:15.281Z,3.03
2018-02-12T08:40:42.759Z,6.32
2018-02-12T08:43:10.243Z,1.87
2018-02-12T08:45:38.492Z,2.20
2018-02-12T08:48:06.732Z,2.30
2018-02-12T08:50:35.856Z,3.12
2018-02-12T08:53:03.327Z,4.40
2018-02-12T08:55:30.813Z,5.43
2018-02-12T08:57:58.298Z,4.17
2018-02-12T09:00:25.760Z,2.33
2018-02-12T09:02:53.240Z,2.43
2018-02-12T09:05:20.942Z,2.50
2018-02-12T09:07:49.193Z,2.30
2018-02-12T09:10:16.647Z,1.93
2018-02-12T09:12:46.563Z,4.20
2018-02-12T09:15:14.053Z,2.43
2018-02-12T09:17:42.304Z,2.47
2018-02-12T09:20:09.774Z,3.20
2018-02-12T09:22:38.034Z,4.73
2018-02-12T09:25:05.497Z,2.10
2018-02-12T09:27:33.754Z,6.20
2018-02-12T09:30:01.212Z,4.17
2018-02-12T09:32:28.690Z,3.53
2018-02-12T09:34:57.078Z,2.40
2018-02-12T09:37:25.320Z,2.20
2018-02-12T09:39:53.554Z,2.20
2018-02-12T09:42:21.050Z,2.23
2018-02-12T09:44:48.519Z,4.80
2018-02-12T09:47:15.999Z,4.00
2018-02-12T09:49:44.240Z,2.70
2018-02-12T09:52:11.717Z,3.20
2018-02-12T09:54:39.184Z,3.67
2018-02-12T09:57:08.102Z,2.75
2018-02-12T09:59:35.628Z,3.90
2018-02-12T10:02:03.903Z,2.83
2018-02-12T10:04:31.367Z,2.57
2018-02-12T10:06:58.878Z,1.40
2018-02-12T10:09:26.345Z,2.70
2018-02-12T10:11:53.869Z,2.37
2018-02-12T10:14:21.326Z,1.63
2018-02-12T10:16:48.799Z,1.67
2018-02-12T10:19:16.272Z,1.90
2018-02-12T10:21:43.762Z,1.40
2018-02-12T10:24:11.245Z,2.93
2018-02-12T10:26:39.492Z,2.90
2018-02-12T10:29:08.497Z,3.83
2018-02-12T10:31:36.787Z,5.95
2018-02-12T10:34:05.039Z,4.47
2018-02-12T10:36:34.012Z,6.20
2018-02-12T10:39:01.512Z,4.67
2018-02-12T10:41:30.087Z,2.58
2018-02-12T10:43:58.336Z,3.00
2018-02-12T10:46:25.813Z,2.90
2018-02-12T10:48:53.286Z,1.77
2018-02-12T10:51:21.516Z,4.27
2018-02-12T10:53:48.984Z,1.58
2018-02-12T10:56:16.477Z,1.50
2018-02-12T10:58:44.737Z,2.13
2018-02-12T11:01:12.400Z,2.60
2018-02-12T11:03:40.883Z,4.23
2018-02-12T11:06:08.351Z,2.27
2018-02-12T11:08:37.516Z,3.40
2018-02-12T11:11:04.975Z,5.53
2018-02-12T11:13:32.457Z,2.30
2018-02-12T11:16:00.699Z,6.70
2018-02-12T11:18:28.203Z,4.90
2018-02-12T11:20:56.446Z,8.03
2018-02-12T11:23:23.917Z,2.93
2018-02-12T11:25:52.165Z,1.80
2018-02-12T11:28:19.648Z,3.40
2018-02-12T11:30:47.120Z,2.00
2018-02-12T11:33:15.348Z,1.47
2018-02-12T11:35:42.815Z,2.37
2018-02-12T11:38:10.287Z,1.70
2018-02-12T11:40:37.758Z,2.63
2018-02-12T11:43:05.239Z,2.95
2018-02-12T11:45:50.071Z,3.90
2018-02-12T11:48:17.531Z,5.30
2018-02-12T11:50:45.017Z,2.40
2018-02-12T11:53:12.487Z,5.83
2018-02-12T11:55:40.730Z,3.33
2018-02-12T11:58:08.976Z,10.57
2018-02-12T12:00:36.465Z,6.30
2018-02-12T12:03:03.921Z,5.80
2018-02-12T12:05:32.182Z,4.27
2018-02-12T12:07:59.655Z,1.90
2018-02-12T12:10:27.912Z,3.37
2018-02-12T12:12:55.386Z,12.40
2018-02-12T12:15:22.881Z,4.60
2018-02-12T12:17:50.365Z,5.53
2018-02-12T12:20:18.084Z,1.50
2018-02-12T12:22:45.566Z,3.50
2018-02-12T12:25:13.031Z,2.37
2018-02-12T12:27:40.501Z,8.07
2018-02-12T12:30:07.986Z,4.10
2018-02-12T12:32:35.451Z,2.05
2018-02-12T12:35:03.701Z,3.00
2018-02-12T12:37:31.168Z,2.67
2018-02-12T12:39:58.639Z,2.90
2018-02-12T12:42:26.887Z,3.70
2018-02-12T12:44:54.367Z,4.37
2018-02-12T12:47:22.212Z,4.03
2018-02-12T12:49:49.331Z,5.63
2018-02-12T12:52:16.822Z,2.50
2018-02-12T12:54:44.283Z,3.17
2018-02-12T12:57:11.777Z,2.63
2018-02-12T12:59:40.007Z,2.30
2018-02-12T13:02:07.480Z,2.90
2018-02-12T13:04:34.956Z,3.00
2018-02-12T13:07:02.435Z,3.03
2018-02-12T13:09:29.910Z,2.43
2018-02-12T13:11:57.408Z,3.10
2018-02-12T13:14:24.876Z,3.30
2018-02-12T13:19:46.038Z,2.40
2018-02-12T13:22:14.299Z,1.60
2018-02-12T13:24:42.587Z,3.50
2018-02-12T13:27:10.060Z,1.60
2018-02-12T13:29:37.529Z,3.00
2018-02-12T13:32:05.012Z,2.50
2018-02-12T13:34:32.494Z,2.00
2018-02-12T13:36:59.979Z,2.92
2018-02-12T13:39:27.461Z,1.80
2018-02-12T13:41:54.973Z,2.10
2018-02-12T13:44:22.476Z,1.70
2018-02-12T13:46:49.984Z,2.43
2018-02-12T13:49:17.483Z,5.15
2018-02-12T13:51:44.950Z,2.60
2018-02-12T13:54:12.423Z,2.53
2018-02-12T13:56:39.912Z,2.13
2018-02-12T13:59:07.512Z,2.53
2018-02-12T14:01:34.995Z,2.40
2018-02-12T14:04:02.470Z,2.67
2018-02-12T14:06:29.968Z,2.47
2018-02-12T14:08:58.224Z,3.60
2018-02-12T14:11:25.698Z,3.70
2018-02-12T14:13:53.949Z,3.03
2018-02-12T14:16:21.421Z,2.57
2018-02-12T14:18:49.691Z,3.37
2018-02-12T14:21:17.191Z,2.50
2018-02-12T14:23:44.672Z,2.50
2018-02-12T14:26:12.161Z,3.57
2018-02-12T14:28:39.642Z,2.93
2018-02-12T14:31:07.877Z,3.37
2018-02-12T14:33:35.370Z,2.40
2018-02-12T14:36:03.589Z,6.33
2018-02-12T14:38:31.071Z,2.90
2018-02-12T14:40:58.554Z,4.63
2018-02-12T14:43:26.803Z,4.10
2018-02-12T14:45:54.932Z,2.37
2018-02-12T14:48:22.411Z,3.00
2018-02-12T14:50:49.903Z,3.33
2018-02-12T14:53:17.388Z,4.57
2018-02-12T14:55:45.626Z,4.25
2018-02-12T14:58:13.115Z,2.87
2018-02-12T15:00:41.426Z,6.17
2018-02-12T15:03:08.911Z,3.83
2018-02-12T15:05:37.007Z,2.97
2018-02-12T15:08:04.494Z,5.53
2018-02-12T15:10:32.732Z,2.90
2018-02-12T15:13:00.196Z,5.13
2018-02-12T15:15:28.830Z,2.70
2018-02-12T15:17:56.298Z,5.07
2018-02-12T15:20:23.776Z,11.73
2018-02-12T15:22:51.239Z,3.00
2018-02-12T15:25:18.732Z,5.83
2018-02-12T15:27:47.882Z,3.30
2018-02-12T15:30:15.373Z,6.03
2018-02-12T15:32:43.617Z,6.23
2018-02-12T15:35:11.108Z,2.72
2018-02-12T15:37:40.072Z,1.90
2018-02-12T15:40:07.565Z,2.70
2018-02-12T15:42:35.808Z,4.07
2018-02-12T15:45:04.060Z,2.43
2018-02-12T15:47:31.550Z,4.63
2018-02-12T15:49:59.018Z,5.43
2018-02-12T15:52:26.492Z,7.73
2018-02-12T15:54:54.732Z,2.73
2018-02-12T15:57:22.191Z,4.30
2018-02-12T15:59:49.663Z,3.23
2018-02-12T16:02:17.143Z,3.87
2018-02-12T16:04:45.386Z,2.67
2018-02-12T16:07:12.851Z,4.87
2018-02-12T16:09:40.332Z,4.40
2018-02-12T16:12:08.947Z,3.10
2018-02-12T16:14:36.657Z,3.50
2018-02-12T16:17:04.133Z,2.97
2018-02-12T16:19:31.695Z,3.27
2018-02-12T16:22:00.452Z,3.10
2018-02-12T16:24:27.951Z,3.90
2018-02-12T16:26:58.734Z,3.23
2018-02-12T16:29:27.034Z,4.40
2018-02-12T16:31:54.517Z,2.80
2018-02-12T16:34:22.757Z,6.60
2018-02-12T16:36:50.235Z,3.33
2018-02-12T16:39:17.706Z,3.20
2018-02-12T16:41:45.952Z,3.97
2018-02-12T16:44:13.416Z,5.03
2018-02-12T16:46:40.900Z,6.53
2018-02-12T16:49:09.135Z,5.50
2018-02-12T16:51:36.618Z,6.77
2018-02-12T16:54:04.088Z,5.62
2018-02-12T16:56:32.337Z,6.43
2018-02-12T16:58:59.806Z,6.97
2018-02-12T17:01:27.287Z,5.80
2018-02-12T17:03:55.533Z,18.50
2018-02-12T17:06:23.026Z,36.97
2018-02-12T17:08:50.504Z,19.08
2018-02-12T17:11:17.988Z,14.27
2018-02-12T17:13:45.460Z,18.30
2018-02-12T17:16:12.960Z,15.70
2018-02-12T17:18:40.440Z,13.87
2018-02-12T17:21:07.939Z,11.98
2018-02-12T17:23:35.411Z,11.07
2018-02-12T17:26:03.655Z,10.80
2018-02-12T17:28:31.120Z,9.03
2018-02-12T17:30:58.614Z,6.97
2018-02-12T17:33:26.845Z,5.63
2018-02-12T17:35:54.333Z,8.20
2018-02-12T17:38:21.809Z,12.77
2018-02-12T17:40:50.083Z,7.85
2018-02-12T17:43:18.321Z,24.63
2018-02-12T17:45:48.866Z,108.87
2018-02-12T17:48:16.341Z,131.50
2018-02-12T17:50:46.527Z,99.57
2018-02-12T17:53:14.004Z,8.47
2018-02-12T17:55:41.501Z,3.67
2018-02-12T17:58:08.994Z,6.40
2018-02-12T18:00:36.483Z,10.90
2018-02-12T18:03:04.733Z,16.43
2018-02-12T18:05:32.207Z,12.63
2018-02-12T18:07:59.668Z,10.33
2018-02-12T18:10:27.916Z,14.60
2018-02-12T18:12:55.399Z,13.07
2018-02-12T18:15:22.875Z,19.98
2018-02-12T18:17:51.138Z,13.73
2018-02-12T18:20:19.381Z,16.30
2018-02-12T18:22:46.862Z,12.97
2018-02-12T18:25:14.338Z,10.07
2018-02-12T18:27:42.575Z,5.60
2018-02-12T18:30:10.062Z,15.73
2018-02-12T18:32:42.366Z,11.53
2018-02-12T18:35:09.852Z,8.70
2018-02-12T18:37:37.344Z,13.40
2018-02-12T18:40:05.612Z,12.37
2018-02-12T18:42:33.106Z,13.10
2018-02-12T18:45:00.681Z,14.63
2018-02-12T18:47:28.156Z,11.23
2018-02-12T18:49:55.631Z,9.47
2018-02-12T18:52:23.106Z,7.43
2018-02-12T18:54:50.589Z,10.53
2018-02-12T18:57:18.891Z,7.00
2018-02-12T18:59:46.333Z,10.40
2018-02-12T19:02:13.819Z,7.40
2018-02-12T19:04:41.295Z,7.20
2018-02-12T19:07:08.771Z,6.97
2018-02-12T19:09:36.348Z,11.60
2018-02-12T19:12:04.599Z,10.70
2018-02-12T19:14:32.094Z,12.77
2018-02-12T19:17:00.339Z,9.03
2018-02-12T19:19:27.820Z,9.07
2018-02-12T19:21:56.071Z,10.43
2018-02-12T19:24:23.644Z,10.70
2018-02-12T19:26:51.949Z,9.43
2018-02-12T19:29:19.410Z,7.80
2018-02-12T19:31:46.932Z,7.40
2018-02-12T19:34:15.177Z,9.17
2018-02-12T19:36:42.679Z,10.20
2018-02-12T19:39:11.049Z,12.97
2018-02-12T19:41:38.528Z,17.33
2018-02-12T19:44:06.023Z,18.15
2018-02-12T19:46:33.489Z,10.10
2018-02-12T19:49:01.035Z,8.43
2018-02-12T19:51:28.535Z,8.53
2018-02-12T19:53:56.035Z,15.40
2018-02-12T19:56:23.526Z,13.43
2018-02-12T19:58:51.035Z,15.93
2018-02-12T20:01:19.268Z,13.83
2018-02-12T20:03:46.739Z,10.27
2018-02-12T20:06:14.232Z,7.20
2018-02-12T20:08:41.736Z,13.20
2018-02-12T20:11:09.204Z,7.70
2018-02-12T20:13:38.196Z,6.90
2018-02-12T20:16:05.672Z,6.80
2018-02-12T20:18:33.173Z,11.73
2018-02-12T20:21:00.668Z,9.10
2018-02-12T20:23:28.140Z,7.87
2018-02-12T20:25:55.633Z,7.87
2018-02-12T20:28:23.106Z,13.33
2018-02-12T20:30:50.606Z,12.27
2018-02-12T20:33:18.083Z,10.93
2018-02-12T20:35:46.336Z,10.37
2018-02-12T20:38:13.830Z,15.50
2018-02-12T20:40:41.304Z,13.80
2018-02-12T20:43:08.783Z,9.50
2018-02-12T20:45:37.114Z,11.10
2018-02-12T20:48:05.344Z,8.00
2018-02-12T20:50:32.841Z,10.43
2018-02-12T20:53:01.071Z,9.77
2018-02-12T20:55:28.575Z,11.17
2018-02-12T20:57:57.004Z,6.77
2018-02-12T21:00:24.507Z,15.97
2018-02-12T21:02:51.980Z,12.07
2018-02-12T21:05:20.245Z,15.50
2018-02-12T21:07:47.710Z,8.63
2018-02-12T21:10:16.980Z,10.80
2018-02-12T21:12:44.504Z,11.82
2018-02-12T21:15:12.008Z,12.47
2018-02-12T21:17:39.500Z,14.87
2018-02-12T21:20:06.983Z,14.60
2018-02-12T21:22:36.852Z,12.88
2018-02-12T21:25:05.112Z,10.27
2018-02-12T21:27:32.593Z,13.47
2018-02-12T21:30:00.839Z,10.63
2018-02-12T21:32:28.346Z,12.10
2018-02-12T21:34:55.838Z,13.02
2018-02-12T21:37:23.311Z,10.87
2018-02-12T21:39:50.789Z,19.37
2018-02-12T21:42:18.276Z,17.17
2018-02-12T21:44:45.769Z,13.20
2018-02-12T21:47:13.248Z,12.90
2018-02-12T21:49:40.826Z,16.07
2018-02-12T21:52:09.086Z,13.40
2018-02-12T21:54:36.563Z,10.53
2018-02-12T21:57:04.840Z,17.03
2018-02-12T21:59:33.079Z,17.23
2018-02-12T22:02:00.581Z,14.60
2018-02-12T22:04:28.824Z,18.33
2018-02-12T22:06:56.329Z,14.93
2018-02-12T22:09:23.796Z,13.13
2018-02-12T22:11:51.289Z,13.00
2018-02-12T22:14:18.774Z,11.53
2018-02-12T22:16:47.032Z,11.07
2018-02-12T22:19:14.515Z,11.02
2018-02-12T22:21:42.787Z,10.83
2018-02-12T22:24:11.075Z,14.60
2018-02-12T22:26:39.321Z,10.50
2018-02-12T22:29:06.788Z,6.97
2018-02-12T22:31:34.287Z,10.30
2018-02-12T22:34:01.788Z,11.30
2018-02-12T22:36:29.264Z,10.17
2018-02-12T22:38:56.754Z,8.20
2018-02-12T22:41:24.223Z,11.87
2018-02-12T22:43:51.728Z,11.10
2018-02-12T22:46:19.193Z,17.23
2018-02-12T22:48:46.693Z,13.67
2018-02-12T22:51:14.169Z,8.50
2018-02-12T22:53:41.667Z,8.83
2018-02-12T22:56:09.916Z,8.17
2018-02-12T22:58:38.112Z,8.97
2018-02-12T23:01:05.587Z,7.97
2018-02-12T23:03:33.954Z,7.40
2018-02-12T23:06:01.430Z,10.43
2018-02-12T23:08:29.688Z,5.63
2018-02-12T23:10:57.957Z,7.80
2018-02-12T23:13:25.452Z,8.53
2018-02-12T23:15:52.927Z,10.10
2018-02-12T23:18:20.409Z,13.70
2018-02-12T23:20:47.893Z,17.40
2018-02-12T23:23:15.390Z,10.93
2018-02-12T23:25:42.880Z,14.63
2018-02-12T23:28:10.369Z,13.27
2018-02-12T23:30:37.837Z,13.73
2018-02-12T23:33:06.082Z,11.13
2018-02-12T23:35:33.664Z,10.43
2018-02-12T23:38:01.150Z,15.07
2018-02-12T23:40:28.628Z,12.00
2018-02-12T23:42:56.123Z,11.00
2018-02-12T23:45:23.691Z,11.47
2018-02-12T23:47:51.191Z,15.77
2018-02-12T23:50:18.671Z,12.27
2018-02-12T23:52:46.204Z,11.50
2018-02-12T23:55:14.424Z,14.67
2018-02-12T23:57:41.907Z,16.33
